»·PEaware :: UAL2285 KDEN-KJAC

UAL2285 :: KDEN-KJAC

FLIGHT INFORMATION

Flight Status: Arrived
Operator:
United Airlines
More flights by this operator :: More flights under this callsign
Pilot: Daan L. (20182)
Aircraft: BOEING 737-800
(B738)
More flights by this aircraft type
Origin: KDEN Denver Intl
United States
Destination: KJAC Jackson Hole
United States
More flights between these airports :: More routes between these airports
Route: YAMMI4 LAR DNW
File this flight plan on PilotEdge
Remarks:
Altitude:
(Current/Filed)
36,000ft
Speed:
(Current/Filed)
448kts
Departed: 11-Feb-19 10:41 AM
Arrived: 11-Feb-19 11:48 AM
Distance/Time
Traveled:
352nm/1:07
Distance/Time
To Go:
Arrived

Flight Plot

Page will automatically refresh every two minutes.

Flight plan parsing failed; only flown route is shown


Map Options




Map Legend


Flown Route
Filed Route
Departure Airport
Arrival Airport
Navaid (VOR, NDB)
Fix

Horizontal Profiles

Position Reports

Time Latitude Longitude Heading Altitude Ground
Speed
11-Feb-19 10:09 39.859369 -104.676334 180 5378ft 0kts
11-Feb-19 10:10 39.859369 -104.676334 180 5378ft 0kts
11-Feb-19 10:11 39.859369 -104.676334 180 5378ft 0kts
11-Feb-19 10:12 39.859369 -104.676334 180 5378ft 0kts
11-Feb-19 10:13 39.859369 -104.676334 180 5378ft 0kts
11-Feb-19 10:14 39.859369 -104.676334 180 5378ft 0kts
11-Feb-19 10:15 39.859369 -104.676334 180 5378ft 0kts
11-Feb-19 10:16 39.859369 -104.676334 180 5378ft 0kts
11-Feb-19 10:17 39.859369 -104.676334 180 5378ft 0kts
11-Feb-19 10:18 39.859369 -104.676334 180 5378ft 0kts
11-Feb-19 10:19 39.859369 -104.676334 180 5378ft 0kts
11-Feb-19 10:20 39.859369 -104.676334 180 5378ft 0kts
11-Feb-19 10:21 39.859369 -104.676334 180 5378ft 0kts
11-Feb-19 10:22 39.859369 -104.676334 180 5378ft 0kts
11-Feb-19 10:23 39.859369 -104.676334 180 5378ft 0kts
11-Feb-19 10:24 39.859369 -104.676334 180 5378ft 0kts
11-Feb-19 10:25 39.859369 -104.676334 180 5378ft 0kts
11-Feb-19 10:26 39.859408 -104.676334 180 5378ft 2kts
11-Feb-19 10:27 39.859981 -104.676334 197 5378ft 1kts
11-Feb-19 10:28 39.860048 -104.676134 270 5378ft 0kts
11-Feb-19 10:29 39.860048 -104.676135 270 5378ft 0kts
11-Feb-19 10:30 39.860048 -104.676135 270 5378ft 0kts
11-Feb-19 10:31 39.860055 -104.678039 268 5378ft 7kts
11-Feb-19 10:32 39.860614 -104.680996 255 5376ft 9kts
11-Feb-19 10:33 39.860315 -104.682857 270 5374ft 0kts
11-Feb-19 10:34 39.860315 -104.682857 270 5374ft 0kts
11-Feb-19 10:35 39.861699 -104.683792 18 5372ft 11kts
11-Feb-19 10:36 39.864291 -104.685295 268 5364ft 9kts
11-Feb-19 10:37 39.864287 -104.685582 268 5363ft 0kts
11-Feb-19 10:38 39.864287 -104.685585 268 5363ft 0kts
11-Feb-19 10:39 39.865814 -104.687153 0 5362ft 37kts
11-Feb-19 10:40 39.904910 -104.686382 3 6845ft 175kts
11-Feb-19 10:41 39.963471 -104.702799 344 8422ft 263kts
11-Feb-19 10:42 40.038858 -104.729328 344 9998ft 281kts
11-Feb-19 10:43 40.118449 -104.764121 339 11304ft 324kts
11-Feb-19 10:44 40.202279 -104.803616 338 12543ft 325kts
11-Feb-19 10:45 40.287847 -104.843576 337 16086ft 335kts
11-Feb-19 10:46 40.379032 -104.886237 337 18405ft 357kts
11-Feb-19 10:47 40.474673 -104.931012 337 21224ft 372kts
11-Feb-19 10:48 40.574372 -104.977827 336 23689ft 388kts
11-Feb-19 10:49 40.677796 -105.029405 326 25814ft 402kts
11-Feb-19 10:50 40.764763 -105.115665 317 27711ft 413kts
11-Feb-19 10:51 40.857192 -105.212345 316 29551ft 428kts
11-Feb-19 10:52 40.951241 -105.311023 317 32068ft 428kts
11-Feb-19 10:53 41.043685 -105.408320 316 34644ft 420kts
11-Feb-19 10:54 41.132788 -105.502594 316 35757ft 430kts
11-Feb-19 10:56 41.226617 -105.602205 316 35756ft 428kts
11-Feb-19 10:57 41.321061 -105.703030 314 35762ft 436kts
11-Feb-19 10:58 41.398605 -105.824573 303 35763ft 427kts
11-Feb-19 10:59 41.471651 -105.950707 303 35762ft 426kts
11-Feb-19 11:00 41.544238 -106.076359 303 35780ft 426kts
11-Feb-19 11:01 41.616935 -106.202488 303 35797ft 426kts
11-Feb-19 11:02 41.689020 -106.327986 304 35795ft 421kts
11-Feb-19 11:03 41.760852 -106.453631 304 35795ft 422kts
11-Feb-19 11:04 41.832335 -106.579238 304 35794ft 422kts
11-Feb-19 11:05 41.903574 -106.705066 303 35801ft 421kts
11-Feb-19 11:06 41.974129 -106.830329 304 35799ft 418kts
11-Feb-19 11:07 42.044457 -106.955724 304 35890ft 420kts
11-Feb-19 11:08 42.114244 -107.080683 303 35889ft 419kts
11-Feb-19 11:09 42.184055 -107.206246 303 35888ft 419kts
11-Feb-19 11:10 42.254108 -107.332785 304 35888ft 415kts
11-Feb-19 11:11 42.323152 -107.458071 304 35843ft 416kts
11-Feb-19 11:12 42.392208 -107.583886 304 33532ft 410kts
11-Feb-19 11:13 42.458403 -107.704975 303 31207ft 388kts
11-Feb-19 11:13 42.510914 -107.801549 303 29287ft 370kts
11-Feb-19 11:15 42.580234 -107.929527 304 26650ft 355kts
11-Feb-19 11:16 42.641450 -108.043066 305 24550ft 371kts
11-Feb-19 11:16 42.691676 -108.136468 305 23851ft 367kts
11-Feb-19 11:17 42.752013 -108.249041 305 23858ft 368kts
11-Feb-19 11:18 42.812129 -108.361606 306 23849ft 366kts
11-Feb-19 11:20 42.882145 -108.493240 306 23846ft 366kts
11-Feb-19 11:20 42.931943 -108.587229 306 23853ft 366kts
11-Feb-19 11:21 42.989251 -108.695908 306 22449ft 345kts
11-Feb-19 11:22 43.044453 -108.801193 306 21271ft 330kts
11-Feb-19 11:23 43.098135 -108.903840 306 20400ft 329kts
11-Feb-19 11:24 43.151714 -109.006577 306 19616ft 326kts
11-Feb-19 11:25 43.204211 -109.107539 305 18828ft 323kts
11-Feb-19 11:26 43.256317 -109.208058 306 18027ft 321kts
11-Feb-19 11:27 43.307560 -109.307188 304 17222ft 305kts
11-Feb-19 11:28 43.356928 -109.403006 303 16401ft 305kts
11-Feb-19 11:29 43.406140 -109.498834 303 15568ft 304kts
11-Feb-19 11:30 43.454953 -109.594189 303 14729ft 302kts
11-Feb-19 11:31 43.501807 -109.686019 302 13971ft 277kts
11-Feb-19 11:32 43.546231 -109.773661 301 13285ft 285kts
11-Feb-19 11:33 43.592264 -109.864593 301 12835ft 286kts
11-Feb-19 11:34 43.637353 -109.953846 301 13540ft 285kts
11-Feb-19 11:35 43.682378 -110.043189 301 13881ft 285kts
11-Feb-19 11:36 43.727852 -110.133658 301 13879ft 285kts
11-Feb-19 11:37 43.773094 -110.223918 299 13997ft 290kts
11-Feb-19 11:38 43.818169 -110.316206 291 13281ft 273kts
11-Feb-19 11:39 43.822346 -110.412454 263 11878ft 238kts
11-Feb-19 11:40 43.816290 -110.501151 262 10548ft 224kts
11-Feb-19 11:41 43.798920 -110.579431 244 9492ft 207kts
11-Feb-19 11:42 43.767967 -110.642642 217 8704ft 191kts
11-Feb-19 11:43 43.726004 -110.680006 203 8447ft 177kts
11-Feb-19 11:44 43.679892 -110.702497 200 7794ft 169kts
11-Feb-19 11:45 43.640862 -110.721229 200 7060ft 133kts
11-Feb-19 11:46 43.606059 -110.738382 197 6429ft 107kts
11-Feb-19 11:47 43.597417 -110.742362 204 6429ft 4kts

Navigation Log

Ident Type
Flight plan parsing failed, navigation log unavailable